Terminal Aerodrome Forecast
Issued by NWS

Home | Current Version | Previous Version | Graphics & Text | Print | Product List | Glossary On
Versions: 1 2 3 4 5 6 7 8 9 10 11 12 13 14 15
000
FTUS41 KCLE 192322
TAFFDY
TAF
KFDY 192322Z 2000/2024 25004KT P6SM SCT050
     FM200100 23004KT P6SM SCT250
     FM200800 00000KT 4SM BR SCT200
     FM201300 22008KT P6SM VCSH SCT060 BKN200
     FM202000 24011KT P6SM VCTS BKN040CB=

USA.gov is the U.S. government's official web portal to all federal, state and local government web resources and services.